sensor_id;sensor_type;location;lat;lon;timestamp;P1;durP1;ratioP1;P2;durP2;ratioP2
2388;SDS011;1205;47.984;7.668;2022-10-31T00:00:42;16.93;;;5.83;;
2388;SDS011;1205;47.984;7.668;2022-10-31T00:03:08;12.60;;;5.70;;
2388;SDS011;1205;47.984;7.668;2022-10-31T00:05:33;13.20;;;6.47;;
2388;SDS011;1205;47.984;7.668;2022-10-31T00:07:59;10.07;;;6.57;;
2388;SDS011;1205;47.984;7.668;2022-10-31T00:10:25;13.50;;;6.00;;
2388;SDS011;1205;47.984;7.668;2022-10-31T00:12:51;14.10;;;5.90;;
2388;SDS011;1205;47.984;7.668;2022-10-31T00:15:17;7.10;;;5.07;;
2388;SDS011;1205;47.984;7.668;2022-10-31T00:17:42;11.13;;;5.17;;
2388;SDS011;1205;47.984;7.668;2022-10-31T00:20:08;5.77;;;4.93;;
2388;SDS011;1205;47.984;7.668;2022-10-31T00:22:34;14.77;;;6.17;;
2388;SDS011;1205;47.984;7.668;2022-10-31T00:25:00;15.77;;;5.40;;
2388;SDS011;1205;47.984;7.668;2022-10-31T00:27:25;6.67;;;5.37;;
2388;SDS011;1205;47.984;7.668;2022-10-31T00:29:51;7.97;;;5.00;;
2388;SDS011;1205;47.984;7.668;2022-10-31T00:32:16;10.60;;;5.50;;
2388;SDS011;1205;47.984;7.668;2022-10-31T00:34:42;6.70;;;4.87;;
2388;SDS011;1205;47.984;7.668;2022-10-31T00:37:07;9.87;;;6.60;;
2388;SDS011;1205;47.984;7.668;2022-10-31T00:39:33;8.70;;;5.50;;
2388;SDS011;1205;47.984;7.668;2022-10-31T00:41:58;6.87;;;4.50;;
2388;SDS011;1205;47.984;7.668;2022-10-31T00:44:24;11.40;;;5.50;;
2388;SDS011;1205;47.984;7.668;2022-10-31T00:46:49;11.13;;;5.43;;
2388;SDS011;1205;47.984;7.668;2022-10-31T00:49:15;7.30;;;4.73;;
2388;SDS011;1205;47.984;7.668;2022-10-31T00:51:40;10.63;;;5.57;;
2388;SDS011;1205;47.984;7.668;2022-10-31T00:54:06;8.70;;;5.30;;
2388;SDS011;1205;47.984;7.668;2022-10-31T00:56:32;10.13;;;5.10;;
2388;SDS011;1205;47.984;7.668;2022-10-31T00:58:57;19.00;;;5.03;;
2388;SDS011;1205;47.984;7.668;2022-10-31T01:01:23;8.63;;;4.87;;
2388;SDS011;1205;47.984;7.668;2022-10-31T01:03:48;11.53;;;4.70;;
2388;SDS011;1205;47.984;7.668;2022-10-31T01:06:14;15.23;;;4.97;;
2388;SDS011;1205;47.984;7.668;2022-10-31T01:08:41;7.80;;;4.63;;
2388;SDS011;1205;47.984;7.668;2022-10-31T01:11:11;7.20;;;5.60;;
2388;SDS011;1205;47.984;7.668;2022-10-31T01:13:45;12.80;;;4.80;;
2388;SDS011;1205;47.984;7.668;2022-10-31T01:16:12;8.73;;;4.73;;
2388;SDS011;1205;47.984;7.668;2022-10-31T01:18:40;15.70;;;5.07;;
2388;SDS011;1205;47.984;7.668;2022-10-31T01:23:34;6.00;;;4.70;;
2388;SDS011;1205;47.984;7.668;2022-10-31T01:26:10;17.53;;;4.73;;
2388;SDS011;1205;47.984;7.668;2022-10-31T01:28:49;6.23;;;4.47;;
2388;SDS011;1205;47.984;7.668;2022-10-31T01:31:20;7.30;;;4.27;;
2388;SDS011;1205;47.984;7.668;2022-10-31T01:33:47;8.63;;;4.60;;
2388;SDS011;1205;47.984;7.668;2022-10-31T01:36:21;10.33;;;5.47;;
2388;SDS011;1205;47.984;7.668;2022-10-31T01:38:55;10.63;;;4.80;;
2388;SDS011;1205;47.984;7.668;2022-10-31T01:41:27;6.33;;;4.93;;
2388;SDS011;1205;47.984;7.668;2022-10-31T01:46:25;9.17;;;4.10;;
2388;SDS011;1205;47.984;7.668;2022-10-31T01:48:55;6.77;;;4.60;;
2388;SDS011;1205;47.984;7.668;2022-10-31T01:51:26;9.20;;;5.60;;
2388;SDS011;1205;47.984;7.668;2022-10-31T01:53:55;13.07;;;5.33;;
2388;SDS011;1205;47.984;7.668;2022-10-31T01:56:24;8.70;;;5.03;;
2388;SDS011;1205;47.984;7.668;2022-10-31T01:58:50;6.70;;;4.63;;
2388;SDS011;1205;47.984;7.668;2022-10-31T02:01:16;8.60;;;5.27;;
2388;SDS011;1205;47.984;7.668;2022-10-31T02:03:43;14.63;;;5.17;;
2388;SDS011;1205;47.984;7.668;2022-10-31T02:06:10;6.00;;;4.30;;
2388;SDS011;1205;47.984;7.668;2022-10-31T02:08:46;8.20;;;6.03;;
2388;SDS011;1205;47.984;7.668;2022-10-31T02:11:12;8.57;;;4.87;;
2388;SDS011;1205;47.984;7.668;2022-10-31T02:13:37;7.93;;;4.50;;
2388;SDS011;1205;47.984;7.668;2022-10-31T02:16:04;9.27;;;6.13;;
2388;SDS011;1205;47.984;7.668;2022-10-31T02:18:29;6.27;;;4.37;;
2388;SDS011;1205;47.984;7.668;2022-10-31T02:37:37;10.47;;;5.33;;
2388;SDS011;1205;47.984;7.668;2022-10-31T02:40:30;9.90;;;5.30;;
2388;SDS011;1205;47.984;7.668;2022-10-31T02:43:05;9.87;;;5.20;;
2388;SDS011;1205;47.984;7.668;2022-10-31T02:45:45;7.23;;;5.10;;
2388;SDS011;1205;47.984;7.668;2022-10-31T02:48:19;9.20;;;4.50;;
2388;SDS011;1205;47.984;7.668;2022-10-31T02:50:51;7.93;;;4.90;;
2388;SDS011;1205;47.984;7.668;2022-10-31T02:53:20;14.73;;;5.33;;
2388;SDS011;1205;47.984;7.668;2022-10-31T02:58:26;8.07;;;6.80;;
2388;SDS011;1205;47.984;7.668;2022-10-31T03:07:17;8.57;;;4.70;;
2388;SDS011;1205;47.984;7.668;2022-10-31T03:09:42;8.93;;;5.40;;
2388;SDS011;1205;47.984;7.668;2022-10-31T03:15:04;9.17;;;4.37;;
2388;SDS011;1205;47.984;7.668;2022-10-31T03:17:36;8.10;;;4.80;;
2388;SDS011;1205;47.984;7.668;2022-10-31T03:20:06;5.80;;;3.83;;
2388;SDS011;1205;47.984;7.668;2022-10-31T03:22:35;9.17;;;4.60;;
2388;SDS011;1205;47.984;7.668;2022-10-31T03:25:03;5.13;;;4.50;;
2388;SDS011;1205;47.984;7.668;2022-10-31T03:27:30;9.10;;;4.73;;
2388;SDS011;1205;47.984;7.668;2022-10-31T03:29:59;9.77;;;4.90;;
2388;SDS011;1205;47.984;7.668;2022-10-31T03:32:28;8.33;;;4.70;;
2388;SDS011;1205;47.984;7.668;2022-10-31T03:35:07;9.03;;;4.40;;
2388;SDS011;1205;47.984;7.668;2022-10-31T03:37:35;10.30;;;4.37;;
2388;SDS011;1205;47.984;7.668;2022-10-31T03:40:03;10.07;;;4.50;;
2388;SDS011;1205;47.984;7.668;2022-10-31T03:42:33;9.93;;;4.73;;
2388;SDS011;1205;47.984;7.668;2022-10-31T03:45:04;9.70;;;4.30;;
2388;SDS011;1205;47.984;7.668;2022-10-31T03:47:35;7.70;;;4.73;;
2388;SDS011;1205;47.984;7.668;2022-10-31T03:50:04;7.90;;;3.83;;
2388;SDS011;1205;47.984;7.668;2022-10-31T03:52:40;9.07;;;4.10;;
2388;SDS011;1205;47.984;7.668;2022-10-31T03:55:19;7.50;;;4.23;;
2388;SDS011;1205;47.984;7.668;2022-10-31T04:00:19;8.63;;;4.20;;
2388;SDS011;1205;47.984;7.668;2022-10-31T04:02:46;18.47;;;4.30;;
2388;SDS011;1205;47.984;7.668;2022-10-31T04:05:19;12.30;;;3.80;;
2388;SDS011;1205;47.984;7.668;2022-10-31T04:07:46;8.13;;;4.40;;
2388;SDS011;1205;47.984;7.668;2022-10-31T04:10:15;11.40;;;4.40;;
2388;SDS011;1205;47.984;7.668;2022-10-31T04:12:43;9.43;;;3.87;;
2388;SDS011;1205;47.984;7.668;2022-10-31T04:15:13;8.47;;;4.30;;
2388;SDS011;1205;47.984;7.668;2022-10-31T04:17:39;11.30;;;4.47;;
2388;SDS011;1205;47.984;7.668;2022-10-31T04:20:07;10.70;;;3.73;;
2388;SDS011;1205;47.984;7.668;2022-10-31T04:22:33;8.50;;;3.73;;
2388;SDS011;1205;47.984;7.668;2022-10-31T04:24:59;5.60;;;4.07;;
2388;SDS011;1205;47.984;7.668;2022-10-31T04:27:24;4.80;;;3.80;;
2388;SDS011;1205;47.984;7.668;2022-10-31T04:29:50;7.27;;;4.00;;
2388;SDS011;1205;47.984;7.668;2022-10-31T04:32:15;8.70;;;3.97;;
2388;SDS011;1205;47.984;7.668;2022-10-31T04:34:41;9.80;;;4.03;;
2388;SDS011;1205;47.984;7.668;2022-10-31T04:37:07;5.47;;;3.70;;
2388;SDS011;1205;47.984;7.668;2022-10-31T04:39:32;8.87;;;4.70;;
2388;SDS011;1205;47.984;7.668;2022-10-31T04:41:58;4.23;;;3.50;;
2388;SDS011;1205;47.984;7.668;2022-10-31T04:44:23;14.00;;;4.73;;
2388;SDS011;1205;47.984;7.668;2022-10-31T04:46:49;8.87;;;4.00;;
2388;SDS011;1205;47.984;7.668;2022-10-31T04:49:14;12.83;;;4.37;;
2388;SDS011;1205;47.984;7.668;2022-10-31T04:51:40;7.70;;;3.90;;
2388;SDS011;1205;47.984;7.668;2022-10-31T04:54:05;7.53;;;4.40;;
2388;SDS011;1205;47.984;7.668;2022-10-31T04:56:31;7.63;;;3.77;;
2388;SDS011;1205;47.984;7.668;2022-10-31T04:58:57;10.57;;;3.70;;
2388;SDS011;1205;47.984;7.668;2022-10-31T05:01:22;5.00;;;3.23;;
2388;SDS011;1205;47.984;7.668;2022-10-31T05:03:48;6.93;;;3.90;;
2388;SDS011;1205;47.984;7.668;2022-10-31T05:06:13;6.87;;;4.37;;
2388;SDS011;1205;47.984;7.668;2022-10-31T05:08:39;5.17;;;3.80;;
2388;SDS011;1205;47.984;7.668;2022-10-31T05:11:04;7.87;;;4.33;;
2388;SDS011;1205;47.984;7.668;2022-10-31T05:13:30;4.77;;;3.73;;
2388;SDS011;1205;47.984;7.668;2022-10-31T05:15:56;4.90;;;3.57;;
2388;SDS011;1205;47.984;7.668;2022-10-31T05:18:21;4.97;;;3.60;;
2388;SDS011;1205;47.984;7.668;2022-10-31T05:20:47;14.70;;;4.10;;
2388;SDS011;1205;47.984;7.668;2022-10-31T05:23:13;5.67;;;3.90;;
2388;SDS011;1205;47.984;7.668;2022-10-31T05:25:39;8.70;;;4.30;;
2388;SDS011;1205;47.984;7.668;2022-10-31T05:28:05;15.63;;;3.87;;
2388;SDS011;1205;47.984;7.668;2022-10-31T05:30:31;7.27;;;4.07;;
2388;SDS011;1205;47.984;7.668;2022-10-31T05:32:58;6.00;;;4.27;;
2388;SDS011;1205;47.984;7.668;2022-10-31T05:35:25;5.07;;;4.23;;
2388;SDS011;1205;47.984;7.668;2022-10-31T05:37:55;11.23;;;4.97;;
2388;SDS011;1205;47.984;7.668;2022-10-31T05:40:22;6.00;;;4.73;;
2388;SDS011;1205;47.984;7.668;2022-10-31T05:42:50;10.47;;;4.50;;
2388;SDS011;1205;47.984;7.668;2022-10-31T05:45:17;17.83;;;5.17;;
2388;SDS011;1205;47.984;7.668;2022-10-31T05:47:57;5.87;;;5.10;;
2388;SDS011;1205;47.984;7.668;2022-10-31T05:50:26;6.00;;;4.73;;
2388;SDS011;1205;47.984;7.668;2022-10-31T05:52:54;14.20;;;4.93;;
2388;SDS011;1205;47.984;7.668;2022-10-31T05:55:30;16.70;;;5.07;;
2388;SDS011;1205;47.984;7.668;2022-10-31T05:57:56;7.60;;;4.53;;
2388;SDS011;1205;47.984;7.668;2022-10-31T06:00:22;7.20;;;4.80;;
2388;SDS011;1205;47.984;7.668;2022-10-31T06:02:48;9.30;;;4.53;;
2388;SDS011;1205;47.984;7.668;2022-10-31T06:05:14;5.03;;;4.30;;
2388;SDS011;1205;47.984;7.668;2022-10-31T06:07:41;9.17;;;5.20;;
2388;SDS011;1205;47.984;7.668;2022-10-31T06:10:07;14.90;;;5.17;;
2388;SDS011;1205;47.984;7.668;2022-10-31T06:12:33;5.70;;;4.43;;
2388;SDS011;1205;47.984;7.668;2022-10-31T06:15:03;8.67;;;5.50;;
2388;SDS011;1205;47.984;7.668;2022-10-31T06:17:30;15.90;;;5.17;;
2388;SDS011;1205;47.984;7.668;2022-10-31T06:19:56;7.70;;;4.60;;
2388;SDS011;1205;47.984;7.668;2022-10-31T06:22:22;7.27;;;4.73;;
2388;SDS011;1205;47.984;7.668;2022-10-31T06:24:47;8.87;;;5.13;;
2388;SDS011;1205;47.984;7.668;2022-10-31T06:27:13;8.00;;;4.20;;
2388;SDS011;1205;47.984;7.668;2022-10-31T06:29:38;7.33;;;4.70;;
2388;SDS011;1205;47.984;7.668;2022-10-31T06:32:04;12.43;;;4.63;;
2388;SDS011;1205;47.984;7.668;2022-10-31T06:34:29;10.13;;;5.20;;
2388;SDS011;1205;47.984;7.668;2022-10-31T06:36:55;7.53;;;4.73;;
2388;SDS011;1205;47.984;7.668;2022-10-31T06:39:21;14.80;;;5.70;;
2388;SDS011;1205;47.984;7.668;2022-10-31T06:41:47;13.40;;;5.90;;
2388;SDS011;1205;47.984;7.668;2022-10-31T06:44:13;17.70;;;5.60;;
2388;SDS011;1205;47.984;7.668;2022-10-31T06:46:38;11.23;;;5.00;;
2388;SDS011;1205;47.984;7.668;2022-10-31T06:49:04;8.33;;;5.60;;
2388;SDS011;1205;47.984;7.668;2022-10-31T06:51:29;11.97;;;4.90;;
2388;SDS011;1205;47.984;7.668;2022-10-31T06:53:55;12.27;;;4.90;;
2388;SDS011;1205;47.984;7.668;2022-10-31T06:56:21;8.13;;;5.10;;
2388;SDS011;1205;47.984;7.668;2022-10-31T06:58:46;8.13;;;4.80;;
2388;SDS011;1205;47.984;7.668;2022-10-31T07:01:12;8.97;;;5.97;;
2388;SDS011;1205;47.984;7.668;2022-10-31T07:03:38;8.03;;;5.50;;
2388;SDS011;1205;47.984;7.668;2022-10-31T07:06:03;20.70;;;13.97;;
2388;SDS011;1205;47.984;7.668;2022-10-31T07:08:29;28.10;;;13.83;;
2388;SDS011;1205;47.984;7.668;2022-10-31T07:10:55;16.60;;;12.10;;
2388;SDS011;1205;47.984;7.668;2022-10-31T07:13:22;20.87;;;11.37;;
2388;SDS011;1205;47.984;7.668;2022-10-31T07:15:51;19.67;;;10.53;;
2388;SDS011;1205;47.984;7.668;2022-10-31T07:18:18;16.37;;;9.13;;
2388;SDS011;1205;47.984;7.668;2022-10-31T07:20:44;11.80;;;8.27;;
2388;SDS011;1205;47.984;7.668;2022-10-31T07:23:10;11.20;;;7.30;;
2388;SDS011;1205;47.984;7.668;2022-10-31T07:25:36;16.60;;;7.40;;
2388;SDS011;1205;47.984;7.668;2022-10-31T07:28:05;12.37;;;6.87;;
2388;SDS011;1205;47.984;7.668;2022-10-31T07:30:31;22.40;;;7.87;;
2388;SDS011;1205;47.984;7.668;2022-10-31T07:32:57;22.90;;;9.10;;
2388;SDS011;1205;47.984;7.668;2022-10-31T07:35:24;32.60;;;7.80;;
2388;SDS011;1205;47.984;7.668;2022-10-31T07:37:52;27.20;;;8.03;;
2388;SDS011;1205;47.984;7.668;2022-10-31T07:40:17;23.80;;;7.53;;
2388;SDS011;1205;47.984;7.668;2022-10-31T07:42:44;32.53;;;6.93;;
2388;SDS011;1205;47.984;7.668;2022-10-31T07:45:13;20.40;;;7.97;;
2388;SDS011;1205;47.984;7.668;2022-10-31T07:47:41;21.10;;;7.97;;
2388;SDS011;1205;47.984;7.668;2022-10-31T07:50:08;20.43;;;8.10;;
2388;SDS011;1205;47.984;7.668;2022-10-31T07:52:36;22.00;;;8.10;;
2388;SDS011;1205;47.984;7.668;2022-10-31T07:55:02;15.03;;;6.70;;
2388;SDS011;1205;47.984;7.668;2022-10-31T07:57:29;21.40;;;7.87;;
2388;SDS011;1205;47.984;7.668;2022-10-31T07:59:54;24.70;;;8.10;;
2388;SDS011;1205;47.984;7.668;2022-10-31T08:02:20;21.60;;;8.90;;
2388;SDS011;1205;47.984;7.668;2022-10-31T08:04:45;25.80;;;8.33;;
2388;SDS011;1205;47.984;7.668;2022-10-31T08:07:11;19.67;;;7.47;;
2388;SDS011;1205;47.984;7.668;2022-10-31T08:09:36;32.57;;;10.47;;
2388;SDS011;1205;47.984;7.668;2022-10-31T08:12:02;20.23;;;9.10;;
2388;SDS011;1205;47.984;7.668;2022-10-31T08:14:28;18.93;;;7.57;;
2388;SDS011;1205;47.984;7.668;2022-10-31T08:16:53;19.50;;;7.80;;
2388;SDS011;1205;47.984;7.668;2022-10-31T08:19:19;17.10;;;8.53;;
2388;SDS011;1205;47.984;7.668;2022-10-31T08:21:45;17.20;;;7.83;;
2388;SDS011;1205;47.984;7.668;2022-10-31T08:24:11;17.17;;;8.70;;
2388;SDS011;1205;47.984;7.668;2022-10-31T08:26:36;15.33;;;9.33;;
2388;SDS011;1205;47.984;7.668;2022-10-31T08:29:02;17.90;;;7.23;;
2388;SDS011;1205;47.984;7.668;2022-10-31T08:31:28;22.90;;;8.50;;
2388;SDS011;1205;47.984;7.668;2022-10-31T08:33:54;20.67;;;8.60;;
2388;SDS011;1205;47.984;7.668;2022-10-31T08:36:20;14.00;;;8.30;;
2388;SDS011;1205;47.984;7.668;2022-10-31T08:38:46;14.30;;;8.03;;
2388;SDS011;1205;47.984;7.668;2022-10-31T08:41:12;22.03;;;7.30;;
2388;SDS011;1205;47.984;7.668;2022-10-31T08:43:38;12.70;;;8.07;;
2388;SDS011;1205;47.984;7.668;2022-10-31T08:46:04;20.20;;;9.00;;
2388;SDS011;1205;47.984;7.668;2022-10-31T08:48:29;21.40;;;9.00;;
2388;SDS011;1205;47.984;7.668;2022-10-31T08:50:57;15.13;;;8.60;;
2388;SDS011;1205;47.984;7.668;2022-10-31T08:53:23;22.97;;;8.10;;
2388;SDS011;1205;47.984;7.668;2022-10-31T08:55:49;22.07;;;8.47;;
2388;SDS011;1205;47.984;7.668;2022-10-31T08:58:18;17.20;;;8.80;;
2388;SDS011;1205;47.984;7.668;2022-10-31T09:00:44;14.90;;;7.90;;
2388;SDS011;1205;47.984;7.668;2022-10-31T09:05:50;19.43;;;9.50;;
2388;SDS011;1205;47.984;7.668;2022-10-31T09:08:19;20.53;;;10.40;;
2388;SDS011;1205;47.984;7.668;2022-10-31T09:10:45;17.50;;;8.90;;
2388;SDS011;1205;47.984;7.668;2022-10-31T09:13:12;16.20;;;9.30;;
2388;SDS011;1205;47.984;7.668;2022-10-31T09:15:40;24.33;;;9.70;;
2388;SDS011;1205;47.984;7.668;2022-10-31T09:18:07;23.70;;;9.97;;
2388;SDS011;1205;47.984;7.668;2022-10-31T09:20:34;23.60;;;10.03;;
2388;SDS011;1205;47.984;7.668;2022-10-31T09:23:02;12.70;;;8.77;;
2388;SDS011;1205;47.984;7.668;2022-10-31T09:25:30;20.03;;;9.53;;
2388;SDS011;1205;47.984;7.668;2022-10-31T09:27:58;20.20;;;8.60;;
2388;SDS011;1205;47.984;7.668;2022-10-31T09:30:25;14.47;;;9.13;;
2388;SDS011;1205;47.984;7.668;2022-10-31T09:32:55;12.93;;;8.80;;
2388;SDS011;1205;47.984;7.668;2022-10-31T09:35:21;24.80;;;10.13;;
2388;SDS011;1205;47.984;7.668;2022-10-31T09:37:53;21.23;;;9.53;;
2388;SDS011;1205;47.984;7.668;2022-10-31T09:40:30;19.47;;;10.30;;
2388;SDS011;1205;47.984;7.668;2022-10-31T09:43:02;18.83;;;9.37;;
2388;SDS011;1205;47.984;7.668;2022-10-31T09:53:34;16.70;;;7.33;;
2388;SDS011;1205;47.984;7.668;2022-10-31T09:56:14;11.90;;;7.40;;
2388;SDS011;1205;47.984;7.668;2022-10-31T09:58:44;14.73;;;6.80;;
2388;SDS011;1205;47.984;7.668;2022-10-31T10:01:22;20.50;;;9.00;;
2388;SDS011;1205;47.984;7.668;2022-10-31T10:03:52;8.60;;;5.73;;
2388;SDS011;1205;47.984;7.668;2022-10-31T10:06:25;14.03;;;8.93;;
2388;SDS011;1205;47.984;7.668;2022-10-31T10:08:54;17.83;;;8.43;;
2388;SDS011;1205;47.984;7.668;2022-10-31T10:11:30;19.40;;;6.60;;
2388;SDS011;1205;47.984;7.668;2022-10-31T10:14:32;8.83;;;6.30;;
2388;SDS011;1205;47.984;7.668;2022-10-31T10:19:46;15.07;;;7.17;;
2388;SDS011;1205;47.984;7.668;2022-10-31T10:22:42;15.37;;;7.03;;
2388;SDS011;1205;47.984;7.668;2022-10-31T10:25:23;16.70;;;7.17;;
2388;SDS011;1205;47.984;7.668;2022-10-31T10:30:43;13.07;;;8.80;;
2388;SDS011;1205;47.984;7.668;2022-10-31T10:33:14;14.07;;;9.03;;
2388;SDS011;1205;47.984;7.668;2022-10-31T10:35:43;15.00;;;8.20;;
2388;SDS011;1205;47.984;7.668;2022-10-31T10:38:17;14.03;;;8.07;;
2388;SDS011;1205;47.984;7.668;2022-10-31T10:41:01;22.23;;;9.03;;
2388;SDS011;1205;47.984;7.668;2022-10-31T10:43:34;17.40;;;8.47;;
2388;SDS011;1205;47.984;7.668;2022-10-31T10:49:17;10.77;;;7.33;;
2388;SDS011;1205;47.984;7.668;2022-10-31T10:57:31;13.23;;;8.60;;
2388;SDS011;1205;47.984;7.668;2022-10-31T11:00:03;15.80;;;8.90;;
2388;SDS011;1205;47.984;7.668;2022-10-31T11:02:46;13.30;;;8.30;;
2388;SDS011;1205;47.984;7.668;2022-10-31T11:05:55;14.90;;;8.43;;
2388;SDS011;1205;47.984;7.668;2022-10-31T11:08:04;17.77;;;8.10;;
2388;SDS011;1205;47.984;7.668;2022-10-31T11:10:31;16.73;;;7.23;;
2388;SDS011;1205;47.984;7.668;2022-10-31T11:15:33;15.63;;;8.60;;
2388;SDS011;1205;47.984;7.668;2022-10-31T11:18:02;14.13;;;8.07;;
2388;SDS011;1205;47.984;7.668;2022-10-31T11:20:32;9.47;;;7.63;;
2388;SDS011;1205;47.984;7.668;2022-10-31T11:23:05;13.60;;;7.40;;
2388;SDS011;1205;47.984;7.668;2022-10-31T11:25:53;20.20;;;7.70;;
2388;SDS011;1205;47.984;7.668;2022-10-31T11:28:19;14.27;;;7.77;;
2388;SDS011;1205;47.984;7.668;2022-10-31T11:30:46;23.93;;;7.63;;
2388;SDS011;1205;47.984;7.668;2022-10-31T11:33:16;11.77;;;7.10;;
2388;SDS011;1205;47.984;7.668;2022-10-31T11:36:16;10.33;;;7.93;;
2388;SDS011;1205;47.984;7.668;2022-10-31T11:38:47;11.27;;;6.70;;
2388;SDS011;1205;47.984;7.668;2022-10-31T11:41:15;9.53;;;6.10;;
2388;SDS011;1205;47.984;7.668;2022-10-31T11:44:04;8.93;;;6.90;;
2388;SDS011;1205;47.984;7.668;2022-10-31T11:46:51;19.43;;;7.73;;
2388;SDS011;1205;47.984;7.668;2022-10-31T11:49:30;13.47;;;7.47;;
2388;SDS011;1205;47.984;7.668;2022-10-31T11:52:12;17.43;;;7.60;;
2388;SDS011;1205;47.984;7.668;2022-10-31T11:54:45;12.07;;;6.77;;
2388;SDS011;1205;47.984;7.668;2022-10-31T11:57:21;15.57;;;7.23;;
2388;SDS011;1205;47.984;7.668;2022-10-31T12:00:02;18.17;;;6.70;;
2388;SDS011;1205;47.984;7.668;2022-10-31T12:02:29;19.10;;;7.03;;
2388;SDS011;1205;47.984;7.668;2022-10-31T12:07:33;14.63;;;6.87;;
2388;SDS011;1205;47.984;7.668;2022-10-31T12:09:59;14.80;;;7.20;;
2388;SDS011;1205;47.984;7.668;2022-10-31T12:26:45;12.47;;;6.83;;
2388;SDS011;1205;47.984;7.668;2022-10-31T12:29:52;14.73;;;6.47;;
2388;SDS011;1205;47.984;7.668;2022-10-31T12:43:46;14.00;;;6.27;;
2388;SDS011;1205;47.984;7.668;2022-10-31T12:46:27;21.13;;;7.47;;
2388;SDS011;1205;47.984;7.668;2022-10-31T12:49:15;16.20;;;7.07;;
2388;SDS011;1205;47.984;7.668;2022-10-31T12:55:00;16.03;;;6.43;;
2388;SDS011;1205;47.984;7.668;2022-10-31T12:57:54;11.33;;;5.97;;
2388;SDS011;1205;47.984;7.668;2022-10-31T13:00:25;18.50;;;6.63;;
2388;SDS011;1205;47.984;7.668;2022-10-31T13:05:46;12.97;;;5.63;;
2388;SDS011;1205;47.984;7.668;2022-10-31T13:11:00;17.83;;;6.53;;
2388;SDS011;1205;47.984;7.668;2022-10-31T13:16:23;13.40;;;6.70;;
2388;SDS011;1205;47.984;7.668;2022-10-31T13:18:57;16.47;;;5.93;;
2388;SDS011;1205;47.984;7.668;2022-10-31T13:21:34;12.40;;;6.13;;
2388;SDS011;1205;47.984;7.668;2022-10-31T13:24:09;19.63;;;6.80;;
2388;SDS011;1205;47.984;7.668;2022-10-31T13:26:46;13.50;;;5.73;;
2388;SDS011;1205;47.984;7.668;2022-10-31T13:29:33;11.73;;;6.57;;
2388;SDS011;1205;47.984;7.668;2022-10-31T13:32:05;18.60;;;6.60;;
2388;SDS011;1205;47.984;7.668;2022-10-31T13:34:33;12.77;;;5.90;;
2388;SDS011;1205;47.984;7.668;2022-10-31T13:39:55;18.40;;;6.90;;
2388;SDS011;1205;47.984;7.668;2022-10-31T13:45:53;13.40;;;7.43;;
2388;SDS011;1205;47.984;7.668;2022-10-31T13:48:37;14.60;;;6.50;;
2388;SDS011;1205;47.984;7.668;2022-10-31T13:51:09;12.70;;;7.60;;
2388;SDS011;1205;47.984;7.668;2022-10-31T13:58:33;11.37;;;7.97;;
2388;SDS011;1205;47.984;7.668;2022-10-31T14:01:03;11.47;;;6.90;;
2388;SDS011;1205;47.984;7.668;2022-10-31T14:03:45;12.43;;;5.73;;
2388;SDS011;1205;47.984;7.668;2022-10-31T14:06:20;9.30;;;6.10;;
2388;SDS011;1205;47.984;7.668;2022-10-31T14:08:49;16.80;;;7.00;;
2388;SDS011;1205;47.984;7.668;2022-10-31T14:11:23;14.60;;;6.53;;
2388;SDS011;1205;47.984;7.668;2022-10-31T14:13:52;15.73;;;6.47;;
2388;SDS011;1205;47.984;7.668;2022-10-31T14:16:22;14.70;;;6.80;;
2388;SDS011;1205;47.984;7.668;2022-10-31T14:21:31;11.83;;;5.90;;
2388;SDS011;1205;47.984;7.668;2022-10-31T14:24:28;10.20;;;5.30;;
2388;SDS011;1205;47.984;7.668;2022-10-31T14:26:57;11.30;;;6.63;;
2388;SDS011;1205;47.984;7.668;2022-10-31T14:29:26;14.83;;;6.20;;
2388;SDS011;1205;47.984;7.668;2022-10-31T14:31:58;17.57;;;6.77;;
2388;SDS011;1205;47.984;7.668;2022-10-31T14:34:33;9.30;;;6.37;;
2388;SDS011;1205;47.984;7.668;2022-10-31T14:37:16;19.40;;;7.20;;
2388;SDS011;1205;47.984;7.668;2022-10-31T14:48:12;17.43;;;7.10;;
2388;SDS011;1205;47.984;7.668;2022-10-31T14:50:47;21.63;;;7.30;;
2388;SDS011;1205;47.984;7.668;2022-10-31T14:53:20;17.50;;;8.07;;
2388;SDS011;1205;47.984;7.668;2022-10-31T14:55:55;14.50;;;7.70;;
2388;SDS011;1205;47.984;7.668;2022-10-31T14:58:33;16.00;;;7.60;;
2388;SDS011;1205;47.984;7.668;2022-10-31T15:01:00;22.83;;;7.27;;
2388;SDS011;1205;47.984;7.668;2022-10-31T15:03:39;12.80;;;6.80;;
2388;SDS011;1205;47.984;7.668;2022-10-31T15:06:14;13.90;;;6.50;;
2388;SDS011;1205;47.984;7.668;2022-10-31T15:08:49;22.33;;;7.53;;
2388;SDS011;1205;47.984;7.668;2022-10-31T15:11:21;18.00;;;8.40;;
2388;SDS011;1205;47.984;7.668;2022-10-31T15:16:19;14.07;;;8.10;;
2388;SDS011;1205;47.984;7.668;2022-10-31T15:18:54;22.13;;;8.03;;
2388;SDS011;1205;47.984;7.668;2022-10-31T15:21:24;16.93;;;8.83;;
2388;SDS011;1205;47.984;7.668;2022-10-31T15:23:53;12.07;;;7.57;;
2388;SDS011;1205;47.984;7.668;2022-10-31T15:26:21;12.50;;;8.33;;
2388;SDS011;1205;47.984;7.668;2022-10-31T15:28:59;19.80;;;8.00;;
2388;SDS011;1205;47.984;7.668;2022-10-31T15:31:36;14.23;;;7.00;;
2388;SDS011;1205;47.984;7.668;2022-10-31T15:34:06;16.40;;;7.60;;
2388;SDS011;1205;47.984;7.668;2022-10-31T15:36:41;14.13;;;7.70;;
2388;SDS011;1205;47.984;7.668;2022-10-31T15:39:10;14.47;;;6.63;;
2388;SDS011;1205;47.984;7.668;2022-10-31T15:41:47;14.43;;;7.97;;
2388;SDS011;1205;47.984;7.668;2022-10-31T15:44:18;17.90;;;7.83;;
2388;SDS011;1205;47.984;7.668;2022-10-31T15:46:56;13.43;;;7.30;;
2388;SDS011;1205;47.984;7.668;2022-10-31T15:49:29;15.50;;;8.00;;
2388;SDS011;1205;47.984;7.668;2022-10-31T15:54:44;11.07;;;7.10;;
2388;SDS011;1205;47.984;7.668;2022-10-31T15:57:15;11.83;;;7.27;;
2388;SDS011;1205;47.984;7.668;2022-10-31T15:59:42;18.77;;;8.80;;
2388;SDS011;1205;47.984;7.668;2022-10-31T16:02:11;15.50;;;7.50;;
2388;SDS011;1205;47.984;7.668;2022-10-31T16:04:47;15.50;;;8.30;;
2388;SDS011;1205;47.984;7.668;2022-10-31T16:07:23;18.47;;;9.47;;
2388;SDS011;1205;47.984;7.668;2022-10-31T16:09:54;21.77;;;11.23;;
2388;SDS011;1205;47.984;7.668;2022-10-31T16:12:20;17.57;;;11.17;;
2388;SDS011;1205;47.984;7.668;2022-10-31T16:14:48;22.60;;;11.10;;
2388;SDS011;1205;47.984;7.668;2022-10-31T16:17:15;16.73;;;9.10;;
2388;SDS011;1205;47.984;7.668;2022-10-31T16:19:59;19.43;;;9.70;;
2388;SDS011;1205;47.984;7.668;2022-10-31T16:22:31;16.27;;;10.80;;
2388;SDS011;1205;47.984;7.668;2022-10-31T16:25:04;36.87;;;18.97;;
2388;SDS011;1205;47.984;7.668;2022-10-31T16:27:34;38.27;;;22.20;;
2388;SDS011;1205;47.984;7.668;2022-10-31T16:30:01;26.50;;;14.60;;
2388;SDS011;1205;47.984;7.668;2022-10-31T16:32:51;21.50;;;11.90;;
2388;SDS011;1205;47.984;7.668;2022-10-31T16:35:27;28.20;;;10.60;;
2388;SDS011;1205;47.984;7.668;2022-10-31T16:37:57;20.60;;;10.50;;
2388;SDS011;1205;47.984;7.668;2022-10-31T16:40:23;29.67;;;10.43;;
2388;SDS011;1205;47.984;7.668;2022-10-31T16:42:49;15.93;;;9.50;;
2388;SDS011;1205;47.984;7.668;2022-10-31T16:45:16;26.97;;;10.50;;
2388;SDS011;1205;47.984;7.668;2022-10-31T16:47:43;19.13;;;10.10;;
2388;SDS011;1205;47.984;7.668;2022-10-31T16:50:16;19.13;;;10.43;;
2388;SDS011;1205;47.984;7.668;2022-10-31T16:52:45;24.67;;;11.03;;
2388;SDS011;1205;47.984;7.668;2022-10-31T16:55:15;16.70;;;11.07;;
2388;SDS011;1205;47.984;7.668;2022-10-31T16:57:43;21.13;;;10.47;;
2388;SDS011;1205;47.984;7.668;2022-10-31T17:00:23;22.23;;;11.67;;
2388;SDS011;1205;47.984;7.668;2022-10-31T17:02:52;24.90;;;13.30;;
2388;SDS011;1205;47.984;7.668;2022-10-31T17:05:20;17.67;;;10.33;;
2388;SDS011;1205;47.984;7.668;2022-10-31T17:07:46;18.20;;;10.50;;
2388;SDS011;1205;47.984;7.668;2022-10-31T17:10:13;28.20;;;13.47;;
2388;SDS011;1205;47.984;7.668;2022-10-31T17:12:42;22.67;;;12.17;;
2388;SDS011;1205;47.984;7.668;2022-10-31T17:15:14;23.90;;;13.60;;
2388;SDS011;1205;47.984;7.668;2022-10-31T17:17:42;31.47;;;19.53;;
2388;SDS011;1205;47.984;7.668;2022-10-31T17:20:41;37.97;;;21.93;;
2388;SDS011;1205;47.984;7.668;2022-10-31T17:23:00;35.23;;;20.40;;
2388;SDS011;1205;47.984;7.668;2022-10-31T17:25:26;18.57;;;13.90;;
2388;SDS011;1205;47.984;7.668;2022-10-31T17:27:53;27.77;;;14.50;;
2388;SDS011;1205;47.984;7.668;2022-10-31T17:30:19;26.50;;;15.73;;
2388;SDS011;1205;47.984;7.668;2022-10-31T17:32:46;19.50;;;14.70;;